createdAt,value
2023-08-27T00:02:25.702Z,6.00
2023-08-27T00:05:09.527Z,6.50
2023-08-27T00:07:53.861Z,5.60
2023-08-27T00:10:37.427Z,6.60
2023-08-27T00:13:20.450Z,6.10
2023-08-27T00:16:07.467Z,6.10
2023-08-27T00:18:50.854Z,6.00
2023-08-27T00:21:33.819Z,6.40
2023-08-27T00:24:17.426Z,7.40
2023-08-27T00:27:01.444Z,5.90
2023-08-27T00:29:44.751Z,6.10
2023-08-27T00:32:29.634Z,6.70
2023-08-27T00:35:14.529Z,6.70
2023-08-27T00:37:58.350Z,6.50
2023-08-27T00:40:42.779Z,6.30
2023-08-27T00:43:26.285Z,6.10
2023-08-27T00:46:12.257Z,6.40
2023-08-27T00:48:56.911Z,6.40
2023-08-27T00:51:40.142Z,6.00
2023-08-27T00:54:25.429Z,5.90
2023-08-27T00:57:10.745Z,6.30
2023-08-27T00:59:56.613Z,6.40
2023-08-27T01:02:41.588Z,6.40
2023-08-27T01:06:18.520Z,6.90
2023-08-27T01:10:28.227Z,7.00
2023-08-27T01:14:37.991Z,6.50
2023-08-27T01:18:41.814Z,6.30
2023-08-27T01:22:45.752Z,6.50
2023-08-27T01:26:49.589Z,6.20
2023-08-27T01:30:56.520Z,6.80
2023-08-27T01:35:00.474Z,6.10
2023-08-27T01:39:05.512Z,6.10
2023-08-27T01:43:04.223Z,5.70
2023-08-27T01:47:08.288Z,5.50
2023-08-27T01:51:13.014Z,6.00
2023-08-27T01:55:16.985Z,6.40
2023-08-27T01:59:22.893Z,6.30
2023-08-27T02:03:26.813Z,6.30
2023-08-27T02:07:30.773Z,5.80
2023-08-27T02:11:34.661Z,6.40
2023-08-27T02:15:38.591Z,6.70
2023-08-27T02:19:42.621Z,6.00
2023-08-27T02:23:46.578Z,6.10
2023-08-27T02:27:43.446Z,6.80
2023-08-27T02:31:53.464Z,5.50
2023-08-27T02:35:58.221Z,5.50
2023-08-27T02:40:02.053Z,7.00
2023-08-27T02:44:05.894Z,6.60
2023-08-27T02:48:02.801Z,6.00
2023-08-27T02:52:06.719Z,5.90
2023-08-27T02:56:10.767Z,6.70
2023-08-27T03:00:07.306Z,6.00
2023-08-27T03:04:11.142Z,5.70
2023-08-27T03:08:08.048Z,5.70
2023-08-27T03:12:11.884Z,5.80
2023-08-27T03:16:08.281Z,5.60
2023-08-27T03:23:56.854Z,6.00
2023-08-27T03:27:50.904Z,6.00
2023-08-27T03:31:47.998Z,6.10
2023-08-27T03:35:52.017Z,6.00
2023-08-27T03:39:55.941Z,5.60
2023-08-27T03:43:50.507Z,6.00
2023-08-27T03:47:54.447Z,6.30
2023-08-27T03:51:58.383Z,6.50
2023-08-27T03:56:02.297Z,6.80
2023-08-27T04:00:06.216Z,5.90
2023-08-27T04:04:11.254Z,5.10
2023-08-27T04:08:15.176Z,7.70
2023-08-27T04:12:19.078Z,5.90
2023-08-27T04:16:23.079Z,5.70
2023-08-27T04:20:20.454Z,5.60
2023-08-27T04:24:24.304Z,5.90
2023-08-27T04:28:28.159Z,6.20
2023-08-27T04:32:33.176Z,6.40
2023-08-27T04:36:37.025Z,6.20
2023-08-27T04:40:41.001Z,6.30
2023-08-27T04:44:44.993Z,6.00
2023-08-27T04:48:48.852Z,6.40
2023-08-27T04:52:42.901Z,6.60
2023-08-27T04:56:46.813Z,6.20
2023-08-27T05:00:50.811Z,7.20
2023-08-27T05:04:54.745Z,6.70
2023-08-27T05:08:58.584Z,6.40
2023-08-27T05:13:03.285Z,5.80
2023-08-27T05:17:08.476Z,6.10
2023-08-27T05:21:12.734Z,6.00
2023-08-27T05:25:16.663Z,5.90
2023-08-27T05:33:42.731Z,5.60
2023-08-27T05:37:48.550Z,5.70
2023-08-27T05:41:42.428Z,5.30
2023-08-27T05:45:46.469Z,4.90
2023-08-27T05:49:42.721Z,5.20
2023-08-27T05:53:50.967Z,5.90
2023-08-27T05:57:54.837Z,4.90
2023-08-27T06:01:58.777Z,5.10
2023-08-27T06:06:02.575Z,5.10
2023-08-27T06:10:06.533Z,4.90
2023-08-27T06:14:10.451Z,4.80
2023-08-27T06:18:03.298Z,4.40
2023-08-27T06:22:00.195Z,4.60
2023-08-27T06:26:05.433Z,4.80
2023-08-27T06:30:09.354Z,4.90
2023-08-27T06:34:07.681Z,4.40
2023-08-27T06:38:13.499Z,4.10
2023-08-27T06:42:17.444Z,4.30
2023-08-27T06:46:22.194Z,4.20
2023-08-27T06:50:21.562Z,4.00
2023-08-27T06:54:26.374Z,4.30
2023-08-27T06:58:32.766Z,4.20
2023-08-27T07:02:36.749Z,4.00
2023-08-27T07:06:40.747Z,4.10
2023-08-27T07:10:45.770Z,4.30
2023-08-27T07:14:43.467Z,4.20
2023-08-27T07:18:47.370Z,4.10
2023-08-27T07:22:53.327Z,4.20
2023-08-27T07:26:57.208Z,3.80
2023-08-27T07:31:01.157Z,4.30
2023-08-27T07:35:04.996Z,4.30
2023-08-27T07:39:08.900Z,4.00
2023-08-27T07:42:57.706Z,4.10
2023-08-27T07:46:54.079Z,4.30
2023-08-27T07:50:57.531Z,4.20
2023-08-27T07:55:01.490Z,3.70
2023-08-27T07:59:05.359Z,4.30
2023-08-27T08:03:05.545Z,4.30
2023-08-27T08:07:10.532Z,4.50
2023-08-27T08:11:15.263Z,4.70
2023-08-27T08:15:19.181Z,4.30
2023-08-27T08:19:25.105Z,4.70
2023-08-27T08:23:30.036Z,4.90
2023-08-27T08:27:35.710Z,4.20
2023-08-27T08:31:40.739Z,5.40
2023-08-27T08:35:44.738Z,4.70
2023-08-27T08:39:48.567Z,4.50
2023-08-27T08:43:53.660Z,4.60
2023-08-27T08:47:57.536Z,5.10
2023-08-27T08:52:02.524Z,5.10
2023-08-27T08:56:10.386Z,5.40
2023-08-27T09:00:14.306Z,5.30
2023-08-27T09:04:01.068Z,4.80
2023-08-27T09:08:15.331Z,5.00
2023-08-27T09:12:21.056Z,4.80
2023-08-27T09:16:16.391Z,4.90
2023-08-27T09:20:22.162Z,5.30
2023-08-27T09:26:10.237Z,5.40
2023-08-27T09:29:57.968Z,5.40
2023-08-27T09:33:49.901Z,4.90
2023-08-27T09:37:53.928Z,4.40
2023-08-27T09:41:57.798Z,4.80
2023-08-27T09:45:44.308Z,4.90
2023-08-27T09:49:36.194Z,4.80
2023-08-27T09:53:04.011Z,5.40
2023-08-27T09:56:59.984Z,4.70
2023-08-27T10:00:52.464Z,4.40
2023-08-27T10:04:30.305Z,4.20
2023-08-27T10:08:37.042Z,4.10
2023-08-27T10:12:06.361Z,4.10
2023-08-27T10:15:52.023Z,4.00
2023-08-27T10:19:49.226Z,4.20
2023-08-27T10:23:39.632Z,4.90
2023-08-27T10:27:24.801Z,4.20
2023-08-27T10:31:28.423Z,4.60
2023-08-27T10:35:18.352Z,4.30
2023-08-27T10:39:15.852Z,4.90
2023-08-27T10:43:14.418Z,3.90
2023-08-27T10:47:00.236Z,4.10
2023-08-27T10:51:04.185Z,4.30
2023-08-27T10:55:00.764Z,4.60
2023-08-27T10:58:43.301Z,5.70
2023-08-27T11:02:33.803Z,5.00
2023-08-27T11:06:29.536Z,4.60
2023-08-27T11:10:32.469Z,4.40
2023-08-27T11:14:42.468Z,4.60
2023-08-27T11:18:36.256Z,4.60
2023-08-27T11:21:50.042Z,5.20
2023-08-27T11:25:53.939Z,4.60
2023-08-27T11:29:54.932Z,4.70
2023-08-27T11:33:23.553Z,4.90
2023-08-27T11:37:19.211Z,4.40
2023-08-27T11:40:59.255Z,5.40
2023-08-27T11:44:18.313Z,4.80
2023-08-27T11:48:06.402Z,4.50
2023-08-27T11:52:10.582Z,5.10
2023-08-27T11:56:14.517Z,4.20
2023-08-27T12:00:12.573Z,4.20
2023-08-27T12:03:54.253Z,4.50
2023-08-27T12:08:06.903Z,4.30
2023-08-27T12:11:28.879Z,4.50
2023-08-27T12:15:22.849Z,4.80
2023-08-27T12:19:26.806Z,5.20
2023-08-27T12:23:11.560Z,4.90
2023-08-27T12:26:58.121Z,5.40
2023-08-27T12:31:02.255Z,5.50
2023-08-27T12:34:32.381Z,4.70
2023-08-27T12:38:38.437Z,5.00
2023-08-27T12:42:31.221Z,5.20
2023-08-27T12:46:25.233Z,5.10
2023-08-27T12:50:30.397Z,5.50
2023-08-27T12:54:28.142Z,5.50
2023-08-27T12:58:33.047Z,5.70
2023-08-27T13:02:37.044Z,5.80
2023-08-27T13:06:41.099Z,5.60
2023-08-27T13:10:35.186Z,5.50
2023-08-27T13:14:42.326Z,5.20
2023-08-27T13:18:46.394Z,5.30
2023-08-27T13:22:51.331Z,5.20
2023-08-27T13:26:35.250Z,5.40
2023-08-27T13:30:27.954Z,5.50
2023-08-27T13:34:31.900Z,5.50
2023-08-27T13:38:25.917Z,5.90
2023-08-27T13:42:29.705Z,6.60
2023-08-27T13:46:29.964Z,6.20
2023-08-27T13:50:24.967Z,6.60
2023-08-27T13:54:17.448Z,5.70
2023-08-27T13:58:21.472Z,6.20
2023-08-27T14:02:26.847Z,7.10
2023-08-27T14:06:14.577Z,6.80
2023-08-27T14:10:17.356Z,5.90
2023-08-27T14:14:22.479Z,8.20
2023-08-27T14:18:29.645Z,6.80
2023-08-27T14:22:33.548Z,7.70
2023-08-27T14:26:37.447Z,7.80
2023-08-27T14:30:21.297Z,7.60
2023-08-27T14:34:26.670Z,7.80
2023-08-27T14:38:30.749Z,7.40
2023-08-27T14:42:34.725Z,7.40
2023-08-27T14:46:38.618Z,8.30
2023-08-27T14:50:35.540Z,7.60
2023-08-27T14:54:00.848Z,7.30
2023-08-27T14:57:52.352Z,7.80
2023-08-27T15:01:12.848Z,7.70
2023-08-27T15:05:05.410Z,8.40
2023-08-27T15:08:40.202Z,8.00
2023-08-27T15:12:37.838Z,8.20
2023-08-27T15:15:49.862Z,8.30
2023-08-27T15:19:22.897Z,9.50
2023-08-27T15:22:35.715Z,9.70
2023-08-27T15:26:21.198Z,9.50
2023-08-27T15:29:54.033Z,9.00
2023-08-27T15:33:15.975Z,10.40
2023-08-27T15:36:28.313Z,9.30
2023-08-27T15:39:38.861Z,9.40
2023-08-27T15:43:09.841Z,10.10
2023-08-27T15:47:04.768Z,9.90
2023-08-27T15:50:48.879Z,13.10
2023-08-27T15:54:35.536Z,10.80
2023-08-27T15:58:39.568Z,9.90
2023-08-27T16:02:42.047Z,11.50
2023-08-27T16:06:46.487Z,12.10
2023-08-27T16:10:49.306Z,12.20
2023-08-27T16:14:52.047Z,10.40
2023-08-27T16:18:54.482Z,11.20
2023-08-27T16:22:47.430Z,9.80
2023-08-27T16:26:51.476Z,11.60
2023-08-27T16:30:44.449Z,11.20
2023-08-27T16:34:48.350Z,11.10
2023-08-27T16:38:52.282Z,11.30
2023-08-27T16:42:43.362Z,11.40
2023-08-27T16:46:48.393Z,12.10
2023-08-27T16:50:52.392Z,12.90
2023-08-27T16:54:56.319Z,11.70
2023-08-27T16:59:00.343Z,12.00
2023-08-27T17:03:07.536Z,11.10
2023-08-27T17:07:04.776Z,10.70
2023-08-27T17:11:08.859Z,9.10
2023-08-27T17:15:12.805Z,10.70
2023-08-27T17:19:17.844Z,10.10
2023-08-27T17:23:21.724Z,9.80
2023-08-27T17:27:15.772Z,10.50
2023-08-27T17:31:19.862Z,10.90
2023-08-27T17:35:03.831Z,9.80
2023-08-27T17:38:47.699Z,9.50
2023-08-27T17:42:51.629Z,10.10
2023-08-27T17:46:56.420Z,8.60
2023-08-27T17:50:48.870Z,8.20
2023-08-27T17:54:44.981Z,9.20
2023-08-27T17:58:41.958Z,9.50
2023-08-27T18:02:45.973Z,8.80
2023-08-27T18:06:49.982Z,9.30
2023-08-27T18:10:54.001Z,9.40
2023-08-27T18:14:59.003Z,9.10
2023-08-27T18:19:03.028Z,9.00
2023-08-27T18:23:07.226Z,9.50
2023-08-27T18:27:11.248Z,8.80
2023-08-27T18:31:14.312Z,9.10
2023-08-27T18:35:18.398Z,9.20
2023-08-27T18:39:12.210Z,8.30
2023-08-27T18:43:16.215Z,9.20
2023-08-27T18:47:10.170Z,8.50
2023-08-27T18:51:06.887Z,8.40
2023-08-27T18:55:10.918Z,8.40
2023-08-27T18:58:57.539Z,8.20
2023-08-27T19:02:41.798Z,8.40
2023-08-27T19:06:48.841Z,8.20
2023-08-27T19:10:52.807Z,8.10
2023-08-27T19:14:47.775Z,8.30
2023-08-27T19:18:51.714Z,8.60
2023-08-27T19:22:56.343Z,9.30
2023-08-27T19:27:00.354Z,8.20
2023-08-27T19:31:04.460Z,8.10
2023-08-27T19:34:50.712Z,9.30
2023-08-27T19:38:54.697Z,9.70
2023-08-27T19:42:58.626Z,10.10
2023-08-27T19:47:02.521Z,11.90
2023-08-27T19:51:06.611Z,10.30
2023-08-27T19:54:50.704Z,9.40
2023-08-27T19:58:54.687Z,9.20
2023-08-27T20:02:56.717Z,9.20
2023-08-27T20:06:19.771Z,9.40
2023-08-27T20:10:14.770Z,9.10
2023-08-27T20:14:18.684Z,9.20
2023-08-27T20:18:23.745Z,9.60
2023-08-27T20:22:26.731Z,9.40
2023-08-27T20:26:30.663Z,8.70
2023-08-27T20:30:34.717Z,9.10
2023-08-27T20:34:38.007Z,7.60
2023-08-27T20:38:45.201Z,8.10
2023-08-27T20:42:49.063Z,8.40
2023-08-27T20:46:52.762Z,8.90
2023-08-27T20:50:50.101Z,9.00
2023-08-27T20:54:54.039Z,9.10
2023-08-27T20:58:57.764Z,8.70
2023-08-27T21:03:00.769Z,8.90
2023-08-27T21:07:04.169Z,9.80
2023-08-27T21:11:08.225Z,9.30
2023-08-27T21:15:10.945Z,9.30
2023-08-27T21:19:13.459Z,9.50
2023-08-27T21:23:18.138Z,9.00
2023-08-27T21:27:14.823Z,9.40
2023-08-27T21:31:35.723Z,10.10
2023-08-27T21:35:24.271Z,9.40
2023-08-27T21:39:28.267Z,9.80
2023-08-27T21:43:29.509Z,9.60
2023-08-27T21:47:26.109Z,9.10
2023-08-27T21:51:22.955Z,9.50
2023-08-27T21:55:11.401Z,10.90
2023-08-27T21:59:15.973Z,10.20
2023-08-27T22:02:58.360Z,11.70
2023-08-27T22:07:08.802Z,13.20
2023-08-27T22:11:01.640Z,15.10
2023-08-27T22:14:48.992Z,15.50
2023-08-27T22:18:16.105Z,14.70
2023-08-27T22:22:14.739Z,16.30
2023-08-27T22:25:57.837Z,16.90
2023-08-27T22:29:46.147Z,18.50
2023-08-27T22:33:38.357Z,19.50
2023-08-27T22:37:32.579Z,18.90
2023-08-27T22:41:29.185Z,20.30
2023-08-27T22:45:23.322Z,21.90
2023-08-27T22:49:26.254Z,20.30
2023-08-27T22:53:30.030Z,19.50
2023-08-27T22:57:11.545Z,18.70
2023-08-27T23:01:17.773Z,17.60
2023-08-27T23:05:21.682Z,17.70
2023-08-27T23:09:27.683Z,18.00
2023-08-27T23:13:31.575Z,17.70
2023-08-27T23:17:37.701Z,17.00
2023-08-27T23:21:42.418Z,16.70
2023-08-27T23:25:40.045Z,16.30
2023-08-27T23:29:43.972Z,16.00
2023-08-27T23:33:47.775Z,15.40
2023-08-27T23:37:50.784Z,16.40
2023-08-27T23:41:54.679Z,16.50
2023-08-27T23:45:59.662Z,13.60
2023-08-27T23:50:00.476Z,14.70
2023-08-27T23:53:56.679Z,15.50
2023-08-27T23:57:51.570Z,14.90
